Barnstable Municipal Boardman Polando Field Hyannis US
ICAO: KHYA
IATA: HYA
Category: Medium
Scheduled Services: Yes

Elevation: 54 ft
TransAlt. 18000 ft.

Airport Communications:
CAPE APP/DEP:118.2
ATIS:123.8
CLNC DEL:125.15
CTAF:119.5
GND:121.9
BRIDGEPORT RDO:126.425
HYANNIS TWR:119.5
UNICOM:122.95

KHYA Zoom In..

Runways:

(A) RW 06 length 5425 ft width 150 ft
---- / hdg 66

(B) RW 15 length 5253 ft width 150 ft
ILS 108.95 / hdg 156

(C) RW 24 length 5425 ft width 150 ft
ILS 109.15 / hdg 246

(D) RW 33 length 5253 ft width 150 ft
---- / hdg 336

Location; KHYA
Day. 22 / Time. 23.56 Zulu
* Altimeter: 30.23
* Temperature: 05° c. 41°f.
* Wind from: 110° Speed 08 kn.
Dewpoint: 04° c.
Visibility: 2 Statute Miles.
Clouds: Overcast 300 ft.
Conditions: Mist.

KHYA 222356Z 11008KT 2SM BR OVC003 05/04 A3023 RMK AO2 SLP239 60001 T00500039 10050 20033 58003


Wind From 110°
Speed 08 kn.

YouTube Music Video
 
jpsmedia.com for Web Design  worldairports.se 2018   terms of use